This is the latest recevied weather packets stored in our database for station/object KE4ODN. If no packets are shown the sender has not sent any weather packets the latest 10 day(s).
| Time | Temp. | Humidity | Pressure | Rain* | Wind** | Luminosity | Snow |
|---|---|---|---|---|---|---|---|
| 1777838404 | 22.22° C | 42% | 1018.9 hPa | 0 mm | - | 800 W/m² | - |
| 1777838164 | 21.67° C | 44% | 1018.9 hPa | 0 mm | - | 814 W/m² | - |
| 1777837204 | 21.11° C | 42% | 1019.3 hPa | 0 mm | - | 849 W/m² | - |
| 1777835524 | 21.11° C | 39% | 1019.7 hPa | 0 mm | - | 902 W/m² | - |
| 1777834564 | 21.67° C | 38% | 1020.1 hPa | 0 mm | - | 921 W/m² | - |
| 1777834345 | 21.67° C | 43% | 1020 hPa | 0 mm | - | 928 W/m² | - |
| 1777833364 | 21.11° C | 40% | 1020.3 hPa | 0 mm | - | 942 W/m² | - |
| 1777832425 | 21.11° C | 42% | 1020.6 hPa | 0 mm | - | 954 W/m² | - |
| 1777830724 | 20.56° C | 42% | 1021 hPa | 0 mm | - | 965 W/m² | - |
| 1777829044 | 20° C | 42% | 1021.2 hPa | 0 mm | - | 963 W/m² | - |
| 1777827865 | 20° C | 40% | 1021.6 hPa | 0 mm | - | 953 W/m² | - |
| 1777827364 | 20° C | 42% | 1021.6 hPa | 0 mm | - | 947 W/m² | - |
| 1777826404 | 19.44° C | 44% | 1021.7 hPa | 0 mm | - | 928 W/m² | - |
| 1777825444 | 18.89° C | 45% | 1021.7 hPa | 0 mm | - | 909 W/m² | - |
| 1777824964 | 18.89° C | 45% | 1021.8 hPa | 0 mm | - | 895 W/m² | - |
| 1777823305 | 18.33° C | 50% | 1022 hPa | 0 mm | - | 802 W/m² | - |
| 1777823065 | 18.33° C | 51% | 1021.9 hPa | 0 mm | - | 770 W/m² | - |
| 1777821844 | 17.78° C | 49% | 1022 hPa | 0 mm | - | 631 W/m² | - |
| 1777820644 | 16.67° C | 49% | 1021.9 hPa | 0 mm | - | 591 W/m² | - |
| 1777817284 | 13.33° C | 76% | 1021.5 hPa | 0 mm | - | 67 W/m² | - |
| 1777815364 | 11.67° C | 85% | 1021.4 hPa | 0 mm | - | 39 W/m² | - |
| 1777813204 | 8.89° C | 93% | 1021.4 hPa | 0 mm | - | 33 W/m² | - |
| 1777812004 | 7.78° C | 94% | 1021.3 hPa | 0 mm | - | 35 W/m² | - |
| 1777809604 | 6.67° C | 94% | 1021.1 hPa | 0 mm | - | 16 W/m² | - |
| 1777809364 | 6.11° C | 94% | 1021.1 hPa | 0 mm | - | 16 W/m² | - |
* Rain latest hour (hover to see other rain measurements)
** Current wind speed in m/s (hover to see current wind gust speed)